createdAt,value
2023-09-08T00:00:18.172Z,101274.89
2023-09-08T00:03:06.418Z,101271.41
2023-09-08T00:05:34.651Z,101271.77
2023-09-08T00:08:02.728Z,101271.41
2023-09-08T00:10:30.928Z,101268.80
2023-09-08T00:12:58.902Z,101268.27
2023-09-08T00:15:27.013Z,101268.63
2023-09-08T00:17:55.120Z,101268.09
2023-09-08T00:20:23.364Z,101263.73
2023-09-08T00:22:51.531Z,101263.73
2023-09-08T00:25:19.781Z,101261.14
2023-09-08T00:27:47.733Z,101258.18
2023-09-08T00:30:15.850Z,101256.27
2023-09-08T00:32:44.221Z,101253.32
2023-09-08T00:35:14.317Z,101255.41
2023-09-08T00:37:42.551Z,101254.36
2023-09-08T00:40:11.842Z,101251.05
2023-09-08T00:42:39.890Z,101253.84
2023-09-08T00:45:08.386Z,101255.93
2023-09-08T00:47:36.564Z,101257.15
2023-09-08T00:50:06.097Z,101254.02
2023-09-08T00:52:35.257Z,101251.05
2023-09-08T00:55:03.408Z,101250.02
2023-09-08T00:57:32.274Z,101251.74
2023-09-08T01:00:00.850Z,101250.53
2023-09-08T01:02:29.742Z,101253.82
2023-09-08T01:05:01.047Z,101253.66
2023-09-08T01:07:55.357Z,101257.15
2023-09-08T01:10:23.892Z,101253.84
2023-09-08T01:12:51.857Z,101258.02
2023-09-08T01:15:20.532Z,101256.28
2023-09-08T01:17:48.652Z,101255.59
2023-09-08T01:20:24.272Z,101256.63
2023-09-08T01:23:10.291Z,101250.01
2023-09-08T01:25:52.263Z,101250.17
2023-09-08T01:28:21.747Z,101247.05
2023-09-08T01:30:50.736Z,101245.49
2023-09-08T01:36:12.728Z,101242.17
2023-09-08T01:38:40.923Z,101244.11
2023-09-08T01:41:09.445Z,101235.21
2023-09-08T01:43:37.500Z,101238.34
2023-09-08T01:46:05.896Z,101241.10
2023-09-08T01:48:34.451Z,101241.63
2023-09-08T01:51:02.654Z,101241.27
2023-09-08T01:53:30.720Z,101239.87
2023-09-08T01:55:58.986Z,101239.87
2023-09-08T01:58:27.741Z,101239.70
2023-09-08T02:00:56.698Z,101236.90
2023-09-08T02:03:24.822Z,101234.63
2023-09-08T02:05:52.874Z,101235.85
2023-09-08T02:08:21.086Z,101239.66
2023-09-08T02:11:14.402Z,101236.34
2023-09-08T02:13:45.354Z,101234.77
2023-09-08T02:16:17.731Z,101232.84
2023-09-08T02:18:46.909Z,101230.56
2023-09-08T02:21:15.068Z,101230.40
2023-09-08T02:23:43.210Z,101231.63
2023-09-08T02:26:12.241Z,101228.65
2023-09-08T02:28:40.360Z,101227.26
2023-09-08T02:31:08.552Z,101228.30
2023-09-08T02:33:36.718Z,101227.25
2023-09-08T02:36:07.033Z,101225.72
2023-09-08T02:38:37.151Z,101227.13
2023-09-08T02:41:06.905Z,101219.69
2023-09-08T02:43:34.992Z,101217.42
2023-09-08T02:46:03.177Z,101211.86
2023-09-08T02:48:32.685Z,101210.48
2023-09-08T02:51:00.770Z,101208.03
2023-09-08T02:53:30.053Z,101205.45
2023-09-08T02:55:59.451Z,101204.92
2023-09-08T02:58:28.876Z,101211.02
2023-09-08T03:00:57.913Z,101203.71
2023-09-08T03:03:26.144Z,101203.73
2023-09-08T03:05:57.813Z,101201.62
2023-09-08T03:08:26.639Z,101204.92
2023-09-08T03:10:57.969Z,101202.48
2023-09-08T03:13:30.356Z,101204.73
2023-09-08T03:15:58.653Z,101209.60
2023-09-08T03:18:26.782Z,101204.03
2023-09-08T03:20:55.153Z,101201.96
2023-09-08T03:23:23.848Z,101199.53
2023-09-08T03:25:51.838Z,101199.89
2023-09-08T03:28:20.004Z,101197.64
2023-09-08T03:30:47.967Z,101192.77
2023-09-08T03:33:16.373Z,101195.20
2023-09-08T03:35:45.349Z,101195.38
2023-09-08T03:38:13.494Z,101193.45
2023-09-08T03:40:42.002Z,101191.55
2023-09-08T03:43:10.121Z,101192.58
2023-09-08T03:45:38.164Z,101189.62
2023-09-08T03:48:06.890Z,101186.66
2023-09-08T03:50:35.998Z,101185.09
2023-09-08T03:53:04.941Z,101186.65
2023-09-08T03:55:33.745Z,101188.55
2023-09-08T03:58:01.744Z,101188.39
2023-09-08T04:05:17.618Z,101188.77
2023-09-08T04:07:46.998Z,101191.04
2023-09-08T04:10:15.910Z,101193.65
2023-09-08T04:12:45.411Z,101192.45
2023-09-08T04:15:13.640Z,101191.22
2023-09-08T04:17:41.919Z,101190.02
2023-09-08T04:20:10.674Z,101189.14
2023-09-08T04:22:38.703Z,101189.50
2023-09-08T04:25:07.882Z,101192.63
2023-09-08T04:27:37.881Z,101186.36
2023-09-08T04:34:41.531Z,101187.52
2023-09-08T04:37:10.268Z,101190.85
2023-09-08T04:39:38.510Z,101186.90
2023-09-08T04:42:07.464Z,101183.30
2023-09-08T04:44:35.617Z,101183.81
2023-09-08T04:47:04.560Z,101179.67
2023-09-08T04:49:33.082Z,101181.22
2023-09-08T04:52:01.511Z,101178.06
2023-09-08T04:54:31.145Z,101179.45
2023-09-08T04:57:11.785Z,101175.54
2023-09-08T04:59:49.288Z,101178.52
2023-09-08T05:02:19.784Z,101178.78
2023-09-08T05:04:48.476Z,101175.50
2023-09-08T05:07:18.330Z,101174.48
2023-09-08T05:09:46.542Z,101172.72
2023-09-08T05:12:14.895Z,101172.80
2023-09-08T05:14:43.318Z,101172.33
2023-09-08T05:17:12.247Z,101167.48
2023-09-08T05:19:40.327Z,101167.24
2023-09-08T05:22:08.474Z,101165.65
2023-09-08T05:24:36.608Z,101167.19
2023-09-08T05:27:05.734Z,101171.78
2023-09-08T05:29:34.978Z,101166.73
2023-09-08T05:32:03.531Z,101162.64
2023-09-08T05:34:32.305Z,101159.12
2023-09-08T05:37:00.573Z,101157.09
2023-09-08T05:39:29.113Z,101157.66
2023-09-08T05:41:57.818Z,101159.16
2023-09-08T05:44:26.501Z,101156.90
2023-09-08T05:46:55.479Z,101164.95
2023-09-08T05:49:25.041Z,101164.41
2023-09-08T05:51:53.330Z,101159.52
2023-09-08T05:54:21.677Z,101163.58
2023-09-08T05:56:49.894Z,101159.11
2023-09-08T05:59:17.793Z,101158.39
2023-09-08T06:01:46.234Z,101156.27
2023-09-08T06:04:14.811Z,101154.44
2023-09-08T06:06:43.350Z,101155.17
2023-09-08T06:09:13.312Z,101158.38
2023-09-08T06:11:41.855Z,101162.21
2023-09-08T06:14:10.656Z,101161.37
2023-09-08T06:16:41.391Z,101160.79
2023-09-08T06:19:10.156Z,101165.30
2023-09-08T06:21:38.245Z,101163.69
2023-09-08T06:24:07.884Z,101161.04
2023-09-08T06:26:36.674Z,101159.80
2023-09-08T06:29:05.118Z,101158.48
2023-09-08T06:31:33.243Z,101160.39
2023-09-08T06:34:01.611Z,101158.52
2023-09-08T06:36:30.438Z,101161.83
2023-09-08T06:38:58.655Z,101159.20
2023-09-08T06:41:28.336Z,101156.30
2023-09-08T06:43:57.483Z,101158.83
2023-09-08T06:46:29.688Z,101165.48
2023-09-08T06:48:58.478Z,101162.77
2023-09-08T06:51:26.930Z,101162.29
2023-09-08T06:53:57.779Z,101161.88
2023-09-08T06:56:28.048Z,101160.44
2023-09-08T06:58:56.335Z,101162.47
2023-09-08T07:01:25.028Z,101161.64
2023-09-08T07:03:53.342Z,101163.09
2023-09-08T07:06:25.509Z,101164.30
2023-09-08T07:08:53.763Z,101161.80
2023-09-08T07:11:22.454Z,101159.06
2023-09-08T07:13:50.612Z,101158.45
2023-09-08T07:16:19.280Z,101160.26
2023-09-08T07:18:47.429Z,101159.80
2023-09-08T07:21:15.505Z,101154.80
2023-09-08T07:23:43.713Z,101149.04
2023-09-08T07:26:12.049Z,101154.23
2023-09-08T07:28:41.421Z,101159.97
2023-09-08T07:31:13.006Z,101158.52
2023-09-08T07:33:42.636Z,101159.75
2023-09-08T07:36:11.826Z,101159.84
2023-09-08T07:38:40.925Z,101159.72
2023-09-08T07:41:09.382Z,101157.55
2023-09-08T07:43:41.914Z,101160.64
2023-09-08T07:46:11.709Z,101163.52
2023-09-08T07:48:40.014Z,101158.95
2023-09-08T07:51:08.233Z,101158.05
2023-09-08T07:53:36.168Z,101154.92
2023-09-08T07:56:05.640Z,101152.59
2023-09-08T07:58:34.519Z,101156.16
2023-09-08T08:01:04.074Z,101155.15
2023-09-08T08:03:32.055Z,101153.54
2023-09-08T08:06:00.170Z,101148.27
2023-09-08T08:08:28.888Z,101145.78
2023-09-08T08:10:56.888Z,101142.61
2023-09-08T08:13:24.880Z,101141.75
2023-09-08T08:15:52.959Z,101138.15
2023-09-08T08:18:21.201Z,101139.58
2023-09-08T08:20:49.402Z,101144.08
2023-09-08T08:23:17.290Z,101147.56
2023-09-08T08:25:45.230Z,101144.52
2023-09-08T08:28:13.096Z,101145.45
2023-09-08T08:30:41.142Z,101143.70
2023-09-08T08:33:09.029Z,101140.40
2023-09-08T08:35:37.246Z,101139.92
2023-09-08T08:38:05.157Z,101142.20
2023-09-08T08:40:35.167Z,101137.23
2023-09-08T08:43:03.354Z,101140.13
2023-09-08T08:45:31.968Z,101135.52
2023-09-08T08:48:01.174Z,101138.11
2023-09-08T08:50:29.494Z,101140.08
2023-09-08T08:52:57.702Z,101140.45
2023-09-08T08:55:27.129Z,101133.11
2023-09-08T08:57:55.527Z,101131.55
2023-09-08T09:00:23.671Z,101130.98
2023-09-08T09:03:03.629Z,101129.13
2023-09-08T09:05:43.306Z,101127.68
2023-09-08T09:08:14.359Z,101132.71
2023-09-08T09:10:42.349Z,101130.09
2023-09-08T09:13:10.402Z,101131.92
2023-09-08T09:15:38.385Z,101132.99
2023-09-08T09:18:07.733Z,101126.11
2023-09-08T09:20:36.912Z,101122.98
2023-09-08T09:23:07.539Z,101123.80
2023-09-08T09:25:37.482Z,101122.58
2023-09-08T09:28:06.308Z,101118.39
2023-09-08T09:30:50.717Z,101115.64
2023-09-08T09:33:19.231Z,101116.68
2023-09-08T09:35:51.073Z,101117.84
2023-09-08T09:38:20.531Z,101117.95
2023-09-08T09:40:50.285Z,101116.45
2023-09-08T09:43:22.136Z,101112.20
2023-09-08T09:45:51.863Z,101110.33
2023-09-08T09:48:20.869Z,101106.63
2023-09-08T09:50:49.940Z,101099.34
2023-09-08T09:53:18.096Z,101100.09
2023-09-08T09:55:46.665Z,101093.64
2023-09-08T09:58:15.946Z,101091.36
2023-09-08T10:00:49.642Z,101089.42
2023-09-08T10:03:19.204Z,101088.13
2023-09-08T10:05:49.674Z,101087.61
2023-09-08T10:08:18.900Z,101084.73
2023-09-08T10:10:48.797Z,101082.42
2023-09-08T10:13:21.378Z,101084.66
2023-09-08T10:15:51.290Z,101082.67
2023-09-08T10:18:20.663Z,101075.90
2023-09-08T10:20:49.329Z,101077.58
2023-09-08T10:23:23.910Z,101079.78
2023-09-08T10:25:55.884Z,101077.60
2023-09-08T10:28:24.426Z,101077.55
2023-09-08T10:30:53.130Z,101076.34
2023-09-08T10:33:21.850Z,101070.20
2023-09-08T10:35:50.115Z,101067.61
2023-09-08T10:38:28.461Z,101069.55
2023-09-08T10:41:15.373Z,101070.66
2023-09-08T10:43:47.507Z,101062.00
2023-09-08T10:46:22.600Z,101061.77
2023-09-08T10:48:50.797Z,101066.20
2023-09-08T10:51:19.034Z,101062.33
2023-09-08T10:53:48.113Z,101057.81
2023-09-08T10:56:18.232Z,101052.73
2023-09-08T10:58:50.145Z,101049.14
2023-09-08T11:04:39.291Z,101048.44
2023-09-08T11:07:07.320Z,101042.91
2023-09-08T11:09:38.773Z,101040.49
2023-09-08T11:12:09.584Z,101041.98
2023-09-08T11:14:37.772Z,101041.56
2023-09-08T11:17:05.820Z,101039.05
2023-09-08T11:19:48.747Z,101035.71
2023-09-08T11:22:20.513Z,101032.10
2023-09-08T11:24:49.791Z,101025.54
2023-09-08T11:27:18.617Z,101026.95
2023-09-08T11:29:46.935Z,101027.63
2023-09-08T11:32:16.209Z,101026.77
2023-09-08T11:34:49.249Z,101026.94
2023-09-08T11:37:20.457Z,101022.97
2023-09-08T11:39:48.903Z,101020.20
2023-09-08T11:42:17.733Z,101015.57
2023-09-08T11:44:45.951Z,101017.12
2023-09-08T11:47:14.223Z,101011.23
2023-09-08T11:49:43.327Z,101007.23
2023-09-08T11:52:12.401Z,101011.59
2023-09-08T11:54:51.912Z,101011.27
2023-09-08T11:57:29.942Z,101006.46
2023-09-08T11:59:59.269Z,101006.02
2023-09-08T12:02:27.792Z,100999.83
2023-09-08T12:04:56.164Z,100997.81
2023-09-08T12:07:24.870Z,100996.14
2023-09-08T12:09:52.945Z,100996.05
2023-09-08T12:12:21.097Z,100992.60
2023-09-08T12:14:49.130Z,100985.73
2023-09-08T12:17:18.923Z,100980.72
2023-09-08T12:19:47.075Z,100980.05
2023-09-08T12:22:20.028Z,100980.27
2023-09-08T12:25:09.643Z,100982.83
2023-09-08T12:27:38.779Z,100979.77
2023-09-08T12:30:09.656Z,100979.34
2023-09-08T12:32:38.089Z,100973.83
2023-09-08T12:35:06.451Z,100977.23
2023-09-08T12:37:35.165Z,100976.60
2023-09-08T12:40:03.432Z,100969.98
2023-09-08T12:42:35.335Z,100967.39
2023-09-08T12:45:08.902Z,100968.27
2023-09-08T12:47:37.228Z,100966.14
2023-09-08T12:50:06.265Z,100964.08
2023-09-08T12:52:34.251Z,100962.30
2023-09-08T12:55:02.296Z,100955.91
2023-09-08T12:57:31.678Z,100958.73
2023-09-08T13:00:00.252Z,100957.37
2023-09-08T13:02:28.450Z,100953.16
2023-09-08T13:04:56.987Z,100951.01
2023-09-08T13:07:25.463Z,100952.64
2023-09-08T13:09:53.931Z,100947.73
2023-09-08T13:12:22.170Z,100945.63
2023-09-08T13:14:50.547Z,100939.26
2023-09-08T13:17:18.668Z,100936.91
2023-09-08T13:19:46.744Z,100936.96
2023-09-08T13:22:15.220Z,100933.86
2023-09-08T13:24:43.997Z,100933.71
2023-09-08T13:27:13.010Z,100931.89
2023-09-08T13:29:41.058Z,100933.84
2023-09-08T13:32:09.126Z,100931.98
2023-09-08T13:34:37.381Z,100927.73
2023-09-08T13:37:05.949Z,100925.02
2023-09-08T13:39:34.174Z,100922.45
2023-09-08T13:42:03.496Z,100919.91
2023-09-08T13:44:41.400Z,100917.39
2023-09-08T13:47:27.965Z,100915.18
2023-09-08T13:49:58.455Z,100916.02
2023-09-08T13:52:28.245Z,100912.74
2023-09-08T13:57:30.590Z,100908.88
2023-09-08T13:59:58.916Z,100910.31
2023-09-08T14:05:02.613Z,100906.65
2023-09-08T14:07:37.408Z,100903.33
2023-09-08T14:12:41.659Z,100898.83
2023-09-08T14:15:09.973Z,100900.44
2023-09-08T14:17:38.332Z,100901.49
2023-09-08T14:20:06.953Z,100901.14
2023-09-08T14:22:34.904Z,100900.84
2023-09-08T14:25:02.929Z,100899.81
2023-09-08T14:27:30.839Z,100896.93
2023-09-08T14:29:58.823Z,100896.52
2023-09-08T14:32:26.776Z,100895.41
2023-09-08T14:34:54.909Z,100891.71
2023-09-08T14:37:23.685Z,100887.86
2023-09-08T14:39:51.770Z,100892.08
2023-09-08T14:42:19.836Z,100890.83
2023-09-08T14:44:48.114Z,100884.50
2023-09-08T14:47:16.169Z,100882.55
2023-09-08T14:49:44.384Z,100880.46
2023-09-08T14:52:12.410Z,100877.16
2023-09-08T14:54:41.752Z,100876.64
2023-09-08T14:57:10.015Z,100874.33
2023-09-08T14:59:38.335Z,100873.05
2023-09-08T15:02:07.779Z,100874.04
2023-09-08T15:04:35.861Z,100871.11
2023-09-08T15:07:04.798Z,100866.54
2023-09-08T15:09:32.994Z,100862.55
2023-09-08T15:12:01.038Z,100860.96
2023-09-08T15:14:29.053Z,100858.13
2023-09-08T15:16:57.029Z,100857.73
2023-09-08T15:19:24.990Z,100857.52
2023-09-08T15:21:52.927Z,100856.91
2023-09-08T15:24:21.116Z,100856.58
2023-09-08T15:26:51.185Z,100846.52
2023-09-08T15:29:21.303Z,100848.16
2023-09-08T15:31:49.955Z,100851.94
2023-09-08T15:34:19.055Z,100853.48
2023-09-08T15:36:48.998Z,100850.74
2023-09-08T15:39:16.954Z,100851.89
2023-09-08T15:41:45.932Z,100848.23
2023-09-08T15:44:15.327Z,100844.05
2023-09-08T15:46:43.978Z,100840.59
2023-09-08T15:49:12.402Z,100840.88
2023-09-08T15:51:41.569Z,100837.79
2023-09-08T15:54:13.268Z,100838.73
2023-09-08T15:56:41.305Z,100840.86
2023-09-08T15:59:09.281Z,100843.57
2023-09-08T16:01:37.628Z,100842.69
2023-09-08T16:04:10.421Z,100840.38
2023-09-08T16:06:39.045Z,100841.07
2023-09-08T16:09:07.300Z,100835.87
2023-09-08T16:11:35.270Z,100836.21
2023-09-08T16:14:03.148Z,100834.99
2023-09-08T16:16:31.497Z,100834.89
2023-09-08T16:18:59.485Z,100834.51
2023-09-08T16:21:27.443Z,100832.52
2023-09-08T16:23:57.181Z,100830.02
2023-09-08T16:26:25.537Z,100827.70
2023-09-08T16:28:54.018Z,100828.85
2023-09-08T16:31:22.028Z,100830.05
2023-09-08T16:33:49.987Z,100833.10
2023-09-08T16:36:18.978Z,100831.27
2023-09-08T16:38:47.056Z,100831.03
2023-09-08T16:41:15.024Z,100833.55
2023-09-08T16:43:43.962Z,100832.77
2023-09-08T16:46:15.427Z,100830.52
2023-09-08T16:48:44.116Z,100831.66
2023-09-08T16:51:12.116Z,100832.74
2023-09-08T16:53:40.199Z,100833.61
2023-09-08T16:56:10.311Z,100835.17
2023-09-08T16:58:38.497Z,100840.67
2023-09-08T17:01:06.569Z,100838.05
2023-09-08T17:03:35.001Z,100838.05
2023-09-08T17:06:03.214Z,100837.45
2023-09-08T17:08:31.548Z,100839.94
2023-09-08T17:11:06.858Z,100840.30
2023-09-08T17:13:35.511Z,100842.11
2023-09-08T17:16:04.205Z,100840.56
2023-09-08T17:18:32.795Z,100840.92
2023-09-08T17:21:01.597Z,100835.10
2023-09-08T17:23:29.702Z,100840.35
2023-09-08T17:25:57.774Z,100838.06
2023-09-08T17:28:26.864Z,100843.70
2023-09-08T17:30:55.103Z,100839.42
2023-09-08T17:33:26.201Z,100842.54
2023-09-08T17:35:54.287Z,100848.81
2023-09-08T17:38:22.316Z,100848.21
2023-09-08T17:40:51.459Z,100848.29
2023-09-08T17:43:19.757Z,100849.55
2023-09-08T17:45:47.836Z,100849.14
2023-09-08T17:48:16.064Z,100851.36
2023-09-08T17:50:44.900Z,100850.36
2023-09-08T17:53:12.988Z,100854.91
2023-09-08T17:55:41.042Z,100852.67
2023-09-08T17:58:09.136Z,100853.75
2023-09-08T18:00:37.243Z,100853.09
2023-09-08T18:03:05.955Z,100854.69
2023-09-08T18:05:34.144Z,100860.34
2023-09-08T18:08:02.471Z,100855.76
2023-09-08T18:10:30.707Z,100851.55
2023-09-08T18:12:58.819Z,100848.59
2023-09-08T18:15:26.984Z,100849.69
2023-09-08T18:17:55.028Z,100847.39
2023-09-08T18:20:23.343Z,100852.82
2023-09-08T18:22:55.715Z,100850.85
2023-09-08T18:25:24.066Z,100851.54
2023-09-08T18:27:52.125Z,100852.65
2023-09-08T18:30:20.275Z,100856.96
2023-09-08T18:32:50.760Z,100858.83
2023-09-08T18:35:18.683Z,100855.91
2023-09-08T18:37:46.768Z,100854.35
2023-09-08T18:40:14.804Z,100855.46
2023-09-08T18:42:42.858Z,100854.79
2023-09-08T18:45:11.388Z,100855.55
2023-09-08T18:47:39.582Z,100852.77
2023-09-08T18:50:08.169Z,100853.79
2023-09-08T18:52:36.241Z,100851.86
2023-09-08T18:55:07.404Z,100854.14
2023-09-08T18:57:35.501Z,100849.41
2023-09-08T19:04:36.434Z,100851.89
2023-09-08T19:07:04.453Z,100851.35
2023-09-08T19:09:32.481Z,100846.55
2023-09-08T19:12:00.526Z,100847.45
2023-09-08T19:14:29.715Z,100851.42
2023-09-08T19:17:01.661Z,100852.55
2023-09-08T19:19:30.103Z,100848.79
2023-09-08T19:21:58.097Z,100851.09
2023-09-08T19:24:26.134Z,100845.71
2023-09-08T19:26:54.443Z,100844.67
2023-09-08T19:29:22.828Z,100839.45
2023-09-08T19:31:50.805Z,100839.94
2023-09-08T19:34:19.521Z,100838.98
2023-09-08T19:36:47.494Z,100839.11
2023-09-08T19:39:15.460Z,100843.06
2023-09-08T19:41:43.629Z,100843.69
2023-09-08T19:44:11.601Z,100842.25
2023-09-08T19:46:39.678Z,100841.68
2023-09-08T19:49:07.903Z,100843.69
2023-09-08T19:51:36.097Z,100840.61
2023-09-08T19:54:04.232Z,100838.77
2023-09-08T19:56:32.170Z,100835.02
2023-09-08T19:59:01.910Z,100830.16
2023-09-08T20:01:31.906Z,100830.56
2023-09-08T20:04:01.586Z,100827.67
2023-09-08T20:06:29.652Z,100829.82
2023-09-08T20:08:58.079Z,100830.57
2023-09-08T20:11:26.354Z,100829.23
2023-09-08T20:13:55.209Z,100831.40
2023-09-08T20:16:23.280Z,100829.16
2023-09-08T20:18:51.638Z,100828.38
2023-09-08T20:21:19.692Z,100827.54
2023-09-08T20:23:47.810Z,100831.09
2023-09-08T20:26:15.758Z,100829.77
2023-09-08T20:28:46.868Z,100831.41
2023-09-08T20:31:17.481Z,100830.08
2023-09-08T20:33:47.005Z,100833.61
2023-09-08T20:36:16.031Z,100831.38
2023-09-08T20:38:45.134Z,100835.24
2023-09-08T20:41:13.694Z,100830.92
2023-09-08T20:43:42.184Z,100832.85
2023-09-08T20:46:10.277Z,100834.08
2023-09-08T20:48:39.371Z,100836.18
2023-09-08T20:51:11.821Z,100834.63
2023-09-08T20:53:43.676Z,100833.98
2023-09-08T20:56:11.869Z,100834.36
2023-09-08T20:58:41.638Z,100839.98
2023-09-08T21:01:10.833Z,100842.80
2023-09-08T21:03:40.301Z,100841.61
2023-09-08T21:06:11.015Z,100843.71
2023-09-08T21:08:39.258Z,100838.52
2023-09-08T21:11:07.682Z,100836.63
2023-09-08T21:13:35.828Z,100839.63
2023-09-08T21:16:04.397Z,100841.40
2023-09-08T21:18:32.829Z,100842.83
2023-09-08T21:21:00.911Z,100841.61
2023-09-08T21:23:29.312Z,100835.35
2023-09-08T21:25:57.457Z,100835.55
2023-09-08T21:28:25.702Z,100835.20
2023-09-08T21:31:08.776Z,100833.66
2023-09-08T21:33:39.373Z,100832.63
2023-09-08T21:36:11.982Z,100830.55
2023-09-08T21:38:40.414Z,100831.29
2023-09-08T21:41:10.916Z,100834.45
2023-09-08T21:43:39.928Z,100834.81
2023-09-08T21:46:09.940Z,100837.64
2023-09-08T21:48:39.700Z,100836.61
2023-09-08T21:51:08.482Z,100841.16
2023-09-08T21:53:36.541Z,100836.29
2023-09-08T21:56:04.718Z,100841.17
2023-09-08T21:58:33.105Z,100839.81
2023-09-08T22:01:01.964Z,100842.44
2023-09-08T22:03:31.897Z,100844.36
2023-09-08T22:06:00.461Z,100841.07
2023-09-08T22:08:28.930Z,100841.45
2023-09-08T22:11:06.097Z,100842.33
2023-09-08T22:13:36.695Z,100841.83
2023-09-08T22:16:06.369Z,100834.89
2023-09-08T22:18:34.810Z,100839.94
2023-09-08T22:21:03.787Z,100839.41
2023-09-08T22:23:34.100Z,100840.48
2023-09-08T22:26:03.869Z,100839.27
2023-09-08T22:28:31.943Z,100833.18
2023-09-08T22:31:00.086Z,100834.42
2023-09-08T22:33:30.581Z,100830.08
2023-09-08T22:35:59.357Z,100831.51
2023-09-08T22:38:28.481Z,100831.01
2023-09-08T22:40:56.720Z,100832.77
2023-09-08T22:43:25.728Z,100831.73
2023-09-08T22:45:54.793Z,100832.77
2023-09-08T22:48:23.294Z,100826.17
2023-09-08T22:50:51.814Z,100825.48
2023-09-08T22:53:20.980Z,100826.02
2023-09-08T22:55:49.125Z,100826.73
2023-09-08T22:58:17.816Z,100824.65
2023-09-08T23:00:46.057Z,100822.23
2023-09-08T23:03:14.151Z,100823.28
2023-09-08T23:05:42.466Z,100826.77
2023-09-08T23:08:10.658Z,100827.81
2023-09-08T23:10:38.781Z,100826.42
2023-09-08T23:13:06.715Z,100827.84
2023-09-08T23:15:34.912Z,100830.80
2023-09-08T23:18:03.547Z,100827.85
2023-09-08T23:20:31.666Z,100829.28
2023-09-08T23:23:00.171Z,100827.20
2023-09-08T23:25:28.481Z,100824.96
2023-09-08T23:27:56.476Z,100822.52
2023-09-08T23:30:24.751Z,100823.57
2023-09-08T23:32:52.762Z,100823.23
2023-09-08T23:35:20.900Z,100824.29
2023-09-08T23:37:49.054Z,100827.59
2023-09-08T23:40:18.070Z,100827.78
2023-09-08T23:42:46.052Z,100823.44
2023-09-08T23:45:14.247Z,100823.96
2023-09-08T23:47:42.276Z,100822.42
2023-09-08T23:50:10.527Z,100820.00
2023-09-08T23:52:39.025Z,100820.86
2023-09-08T23:55:07.492Z,100818.41
2023-09-08T23:57:35.526Z,100816.69
